sensor_id;sensor_type;location;lat;lon;timestamp;temperature;humidity
3051;DHT22;1535;51.098;6.414;2022-09-20T00:00:46;11.80;99.90
3051;DHT22;1535;51.098;6.414;2022-09-20T00:03:14;11.80;99.90
3051;DHT22;1535;51.098;6.414;2022-09-20T00:05:43;11.90;99.90
3051;DHT22;1535;51.098;6.414;2022-09-20T00:08:12;11.90;99.90
3051;DHT22;1535;51.098;6.414;2022-09-20T00:10:38;11.90;99.90
3051;DHT22;1535;51.098;6.414;2022-09-20T00:13:09;12.00;99.90
3051;DHT22;1535;51.098;6.414;2022-09-20T00:15:40;11.90;99.90
3051;DHT22;1535;51.098;6.414;2022-09-20T00:18:08;11.90;99.90
3051;DHT22;1535;51.098;6.414;2022-09-20T00:20:36;11.90;99.90
3051;DHT22;1535;51.098;6.414;2022-09-20T00:23:03;11.90;99.90
3051;DHT22;1535;51.098;6.414;2022-09-20T00:25:30;11.90;99.90
3051;DHT22;1535;51.098;6.414;2022-09-20T00:27:58;11.90;99.90
3051;DHT22;1535;51.098;6.414;2022-09-20T00:30:26;11.90;99.90
3051;DHT22;1535;51.098;6.414;2022-09-20T00:32:54;11.90;99.90
3051;DHT22;1535;51.098;6.414;2022-09-20T00:35:21;11.90;99.90
3051;DHT22;1535;51.098;6.414;2022-09-20T00:37:47;11.80;99.90
3051;DHT22;1535;51.098;6.414;2022-09-20T00:40:16;11.90;99.90
3051;DHT22;1535;51.098;6.414;2022-09-20T00:42:45;11.90;99.90
3051;DHT22;1535;51.098;6.414;2022-09-20T00:45:19;11.90;99.90
3051;DHT22;1535;51.098;6.414;2022-09-20T00:47:50;11.90;99.90
3051;DHT22;1535;51.098;6.414;2022-09-20T00:50:28;11.90;99.90
3051;DHT22;1535;51.098;6.414;2022-09-20T00:53:01;11.90;99.90
3051;DHT22;1535;51.098;6.414;2022-09-20T00:55:30;11.90;99.90
3051;DHT22;1535;51.098;6.414;2022-09-20T00:57:58;11.80;99.90
3051;DHT22;1535;51.098;6.414;2022-09-20T01:00:25;11.80;99.90
3051;DHT22;1535;51.098;6.414;2022-09-20T01:02:56;11.80;99.90
3051;DHT22;1535;51.098;6.414;2022-09-20T01:05:24;11.80;99.90
3051;DHT22;1535;51.098;6.414;2022-09-20T01:07:53;11.80;99.90
3051;DHT22;1535;51.098;6.414;2022-09-20T01:10:20;11.80;99.90
3051;DHT22;1535;51.098;6.414;2022-09-20T01:12:48;11.80;99.90
3051;DHT22;1535;51.098;6.414;2022-09-20T01:15:16;11.90;99.90
3051;DHT22;1535;51.098;6.414;2022-09-20T01:17:46;11.90;99.90
3051;DHT22;1535;51.098;6.414;2022-09-20T01:20:22;11.90;99.90
3051;DHT22;1535;51.098;6.414;2022-09-20T01:23:22;11.90;99.90
3051;DHT22;1535;51.098;6.414;2022-09-20T01:26:05;11.80;99.90
3051;DHT22;1535;51.098;6.414;2022-09-20T01:28:39;11.90;99.90
3051;DHT22;1535;51.098;6.414;2022-09-20T01:31:12;11.80;99.90
3051;DHT22;1535;51.098;6.414;2022-09-20T01:33:46;11.80;99.90
3051;DHT22;1535;51.098;6.414;2022-09-20T01:36:17;11.80;99.90
3051;DHT22;1535;51.098;6.414;2022-09-20T01:38:55;11.90;99.90
3051;DHT22;1535;51.098;6.414;2022-09-20T01:41:28;11.90;99.90
3051;DHT22;1535;51.098;6.414;2022-09-20T01:44:05;11.80;99.90
3051;DHT22;1535;51.098;6.414;2022-09-20T01:46:35;11.80;99.90
3051;DHT22;1535;51.098;6.414;2022-09-20T01:49:16;11.80;99.90
3051;DHT22;1535;51.098;6.414;2022-09-20T01:52:20;11.80;99.90
3051;DHT22;1535;51.098;6.414;2022-09-20T01:55:24;11.70;99.90
3051;DHT22;1535;51.098;6.414;2022-09-20T01:58:15;11.80;99.90
3051;DHT22;1535;51.098;6.414;2022-09-20T02:01:18;11.70;99.90
3051;DHT22;1535;51.098;6.414;2022-09-20T02:04:08;11.70;99.90
3051;DHT22;1535;51.098;6.414;2022-09-20T02:06:51;11.70;99.90
3051;DHT22;1535;51.098;6.414;2022-09-20T02:09:35;11.70;99.90
3051;DHT22;1535;51.098;6.414;2022-09-20T02:12:38;11.70;99.90
3051;DHT22;1535;51.098;6.414;2022-09-20T02:15:28;11.70;99.90
3051;DHT22;1535;51.098;6.414;2022-09-20T02:18:12;11.70;99.90
3051;DHT22;1535;51.098;6.414;2022-09-20T02:20:47;11.70;99.90
3051;DHT22;1535;51.098;6.414;2022-09-20T02:23:31;11.70;99.90
3051;DHT22;1535;51.098;6.414;2022-09-20T02:26:16;11.70;99.90
3051;DHT22;1535;51.098;6.414;2022-09-20T02:28:53;11.60;99.90
3051;DHT22;1535;51.098;6.414;2022-09-20T02:31:31;11.70;99.90
3051;DHT22;1535;51.098;6.414;2022-09-20T02:34:25;11.80;99.90
3051;DHT22;1535;51.098;6.414;2022-09-20T02:37:12;11.70;99.90
3051;DHT22;1535;51.098;6.414;2022-09-20T02:39:46;11.60;99.90
3051;DHT22;1535;51.098;6.414;2022-09-20T02:42:19;11.60;99.90
3051;DHT22;1535;51.098;6.414;2022-09-20T02:44:55;11.50;99.90
3051;DHT22;1535;51.098;6.414;2022-09-20T02:47:31;11.60;99.90
3051;DHT22;1535;51.098;6.414;2022-09-20T02:50:24;11.60;99.90
3051;DHT22;1535;51.098;6.414;2022-09-20T02:53:03;11.60;99.90
3051;DHT22;1535;51.098;6.414;2022-09-20T02:55:36;11.50;99.90
3051;DHT22;1535;51.098;6.414;2022-09-20T02:58:20;11.50;99.90
3051;DHT22;1535;51.098;6.414;2022-09-20T03:00:55;11.50;99.90
3051;DHT22;1535;51.098;6.414;2022-09-20T03:03:37;11.60;99.90
3051;DHT22;1535;51.098;6.414;2022-09-20T03:06:11;11.60;99.90
3051;DHT22;1535;51.098;6.414;2022-09-20T03:08:48;11.50;99.90
3051;DHT22;1535;51.098;6.414;2022-09-20T03:11:26;11.60;99.90
3051;DHT22;1535;51.098;6.414;2022-09-20T03:14:07;11.50;99.90
3051;DHT22;1535;51.098;6.414;2022-09-20T03:16:44;11.60;99.90
3051;DHT22;1535;51.098;6.414;2022-09-20T03:19:24;11.60;99.90
3051;DHT22;1535;51.098;6.414;2022-09-20T03:22:04;11.50;99.90
3051;DHT22;1535;51.098;6.414;2022-09-20T03:24:42;11.50;99.90
3051;DHT22;1535;51.098;6.414;2022-09-20T03:27:19;11.60;99.90
3051;DHT22;1535;51.098;6.414;2022-09-20T03:30:02;11.60;99.90
3051;DHT22;1535;51.098;6.414;2022-09-20T03:32:45;11.50;99.90
3051;DHT22;1535;51.098;6.414;2022-09-20T03:35:27;11.50;99.90
3051;DHT22;1535;51.098;6.414;2022-09-20T03:38:10;11.50;99.90
3051;DHT22;1535;51.098;6.414;2022-09-20T03:41:01;11.50;99.90
3051;DHT22;1535;51.098;6.414;2022-09-20T03:43:44;11.40;99.90
3051;DHT22;1535;51.098;6.414;2022-09-20T03:46:18;11.40;99.90
3051;DHT22;1535;51.098;6.414;2022-09-20T03:49:04;11.50;99.90
3051;DHT22;1535;51.098;6.414;2022-09-20T03:51:46;11.40;99.90
3051;DHT22;1535;51.098;6.414;2022-09-20T04:00:29;11.50;99.90
3051;DHT22;1535;51.098;6.414;2022-09-20T04:03:10;11.50;99.90
3051;DHT22;1535;51.098;6.414;2022-09-20T04:05:47;11.50;99.90
3051;DHT22;1535;51.098;6.414;2022-09-20T04:08:28;11.60;99.90
3051;DHT22;1535;51.098;6.414;2022-09-20T04:11:05;11.50;99.90
3051;DHT22;1535;51.098;6.414;2022-09-20T04:13:36;11.50;99.90
3051;DHT22;1535;51.098;6.414;2022-09-20T04:16:13;11.50;99.90
3051;DHT22;1535;51.098;6.414;2022-09-20T04:18:47;11.50;99.90
3051;DHT22;1535;51.098;6.414;2022-09-20T04:21:20;11.60;99.90
3051;DHT22;1535;51.098;6.414;2022-09-20T04:23:54;11.60;99.90
3051;DHT22;1535;51.098;6.414;2022-09-20T04:26:25;11.60;99.90
3051;DHT22;1535;51.098;6.414;2022-09-20T04:28:56;11.50;99.90
3051;DHT22;1535;51.098;6.414;2022-09-20T04:31:35;11.50;99.90
3051;DHT22;1535;51.098;6.414;2022-09-20T04:34:10;11.60;99.90
3051;DHT22;1535;51.098;6.414;2022-09-20T04:36:56;11.60;99.90
3051;DHT22;1535;51.098;6.414;2022-09-20T04:39:30;11.60;99.90
3051;DHT22;1535;51.098;6.414;2022-09-20T04:42:24;11.60;99.90
3051;DHT22;1535;51.098;6.414;2022-09-20T04:45:28;11.50;99.90
3051;DHT22;1535;51.098;6.414;2022-09-20T04:48:26;11.40;99.90
3051;DHT22;1535;51.098;6.414;2022-09-20T04:51:36;11.40;99.90
3051;DHT22;1535;51.098;6.414;2022-09-20T04:54:24;11.40;99.90
3051;DHT22;1535;51.098;6.414;2022-09-20T04:57:12;11.30;99.90
3051;DHT22;1535;51.098;6.414;2022-09-20T05:00:00;11.30;99.90
3051;DHT22;1535;51.098;6.414;2022-09-20T05:02:52;11.20;99.90
3051;DHT22;1535;51.098;6.414;2022-09-20T05:11:53;11.10;99.90
3051;DHT22;1535;51.098;6.414;2022-09-20T05:14:39;11.00;99.90
3051;DHT22;1535;51.098;6.414;2022-09-20T05:17:22;11.10;99.90
3051;DHT22;1535;51.098;6.414;2022-09-20T05:26:09;11.00;99.90
3051;DHT22;1535;51.098;6.414;2022-09-20T05:28:48;11.10;99.90
3051;DHT22;1535;51.098;6.414;2022-09-20T05:31:20;11.20;99.90
3051;DHT22;1535;51.098;6.414;2022-09-20T05:33:53;11.20;99.90
3051;DHT22;1535;51.098;6.414;2022-09-20T05:36:29;11.20;99.90
3051;DHT22;1535;51.098;6.414;2022-09-20T05:39:03;11.20;99.90
3051;DHT22;1535;51.098;6.414;2022-09-20T05:41:37;11.20;99.90
3051;DHT22;1535;51.098;6.414;2022-09-20T05:44:18;11.20;99.90
3051;DHT22;1535;51.098;6.414;2022-09-20T05:46:55;11.20;99.90
3051;DHT22;1535;51.098;6.414;2022-09-20T05:49:35;11.20;99.90
3051;DHT22;1535;51.098;6.414;2022-09-20T05:52:18;11.20;99.90
3051;DHT22;1535;51.098;6.414;2022-09-20T05:55:02;11.10;99.90
3051;DHT22;1535;51.098;6.414;2022-09-20T05:57:45;11.10;99.90
3051;DHT22;1535;51.098;6.414;2022-09-20T06:00:19;11.20;99.90
3051;DHT22;1535;51.098;6.414;2022-09-20T06:02:52;11.20;99.90
3051;DHT22;1535;51.098;6.414;2022-09-20T06:05:28;11.30;99.90
3051;DHT22;1535;51.098;6.414;2022-09-20T06:08:24;11.40;99.90
3051;DHT22;1535;51.098;6.414;2022-09-20T06:11:09;11.50;99.90
3051;DHT22;1535;51.098;6.414;2022-09-20T06:13:48;11.60;99.90
3051;DHT22;1535;51.098;6.414;2022-09-20T06:16:34;11.50;99.90
3051;DHT22;1535;51.098;6.414;2022-09-20T06:19:12;11.50;99.90
3051;DHT22;1535;51.098;6.414;2022-09-20T06:21:47;11.40;99.90
3051;DHT22;1535;51.098;6.414;2022-09-20T06:24:24;11.40;99.90
3051;DHT22;1535;51.098;6.414;2022-09-20T06:26:53;11.40;99.90
3051;DHT22;1535;51.098;6.414;2022-09-20T06:29:26;11.50;99.90
3051;DHT22;1535;51.098;6.414;2022-09-20T06:31:55;11.60;99.90
3051;DHT22;1535;51.098;6.414;2022-09-20T06:34:22;11.70;99.90
3051;DHT22;1535;51.098;6.414;2022-09-20T06:36:56;11.80;99.90
3051;DHT22;1535;51.098;6.414;2022-09-20T06:39:50;11.90;99.90
3051;DHT22;1535;51.098;6.414;2022-09-20T06:42:35;12.10;99.90
3051;DHT22;1535;51.098;6.414;2022-09-20T06:45:04;12.00;99.90
3051;DHT22;1535;51.098;6.414;2022-09-20T06:47:32;12.20;99.90
3051;DHT22;1535;51.098;6.414;2022-09-20T06:49:59;12.20;99.90
3051;DHT22;1535;51.098;6.414;2022-09-20T06:52:26;12.20;99.90
3051;DHT22;1535;51.098;6.414;2022-09-20T06:54:54;12.30;99.90
3051;DHT22;1535;51.098;6.414;2022-09-20T06:57:23;12.30;99.90
3051;DHT22;1535;51.098;6.414;2022-09-20T06:59:51;12.40;99.90
3051;DHT22;1535;51.098;6.414;2022-09-20T07:02:17;12.60;99.90
3051;DHT22;1535;51.098;6.414;2022-09-20T07:04:46;12.60;99.90
3051;DHT22;1535;51.098;6.414;2022-09-20T07:07:15;12.70;99.90
3051;DHT22;1535;51.098;6.414;2022-09-20T07:09:43;12.70;99.90
3051;DHT22;1535;51.098;6.414;2022-09-20T07:12:10;12.90;99.90
3051;DHT22;1535;51.098;6.414;2022-09-20T07:14:37;13.00;99.90
3051;DHT22;1535;51.098;6.414;2022-09-20T07:17:04;13.00;99.90
3051;DHT22;1535;51.098;6.414;2022-09-20T07:19:32;13.00;99.90
3051;DHT22;1535;51.098;6.414;2022-09-20T07:22:01;13.10;99.90
3051;DHT22;1535;51.098;6.414;2022-09-20T07:24:29;13.20;99.90
3051;DHT22;1535;51.098;6.414;2022-09-20T07:26:58;13.30;99.90
3051;DHT22;1535;51.098;6.414;2022-09-20T07:29:26;13.20;99.90
3051;DHT22;1535;51.098;6.414;2022-09-20T07:31:54;13.30;99.90
3051;DHT22;1535;51.098;6.414;2022-09-20T07:34:20;13.40;99.90
3051;DHT22;1535;51.098;6.414;2022-09-20T07:36:48;13.50;99.90
3051;DHT22;1535;51.098;6.414;2022-09-20T07:39:17;13.50;99.90
3051;DHT22;1535;51.098;6.414;2022-09-20T07:41:45;13.40;99.90
3051;DHT22;1535;51.098;6.414;2022-09-20T07:44:13;13.40;99.90
3051;DHT22;1535;51.098;6.414;2022-09-20T07:46:50;13.30;99.90
3051;DHT22;1535;51.098;6.414;2022-09-20T07:49:18;13.20;99.90
3051;DHT22;1535;51.098;6.414;2022-09-20T07:51:44;13.20;99.90
3051;DHT22;1535;51.098;6.414;2022-09-20T07:54:11;13.20;99.90
3051;DHT22;1535;51.098;6.414;2022-09-20T07:56:41;13.30;99.90
3051;DHT22;1535;51.098;6.414;2022-09-20T07:59:09;13.20;99.90
3051;DHT22;1535;51.098;6.414;2022-09-20T08:01:36;13.20;99.90
3051;DHT22;1535;51.098;6.414;2022-09-20T08:04:03;13.20;99.90
3051;DHT22;1535;51.098;6.414;2022-09-20T08:06:31;13.20;99.90
3051;DHT22;1535;51.098;6.414;2022-09-20T08:08:58;13.20;99.90
3051;DHT22;1535;51.098;6.414;2022-09-20T08:11:25;13.20;99.90
3051;DHT22;1535;51.098;6.414;2022-09-20T08:13:57;13.30;99.90
3051;DHT22;1535;51.098;6.414;2022-09-20T08:16:25;13.30;99.90
3051;DHT22;1535;51.098;6.414;2022-09-20T08:18:53;13.40;99.90
3051;DHT22;1535;51.098;6.414;2022-09-20T08:21:22;13.50;99.90
3051;DHT22;1535;51.098;6.414;2022-09-20T08:23:49;13.50;99.90
3051;DHT22;1535;51.098;6.414;2022-09-20T08:26:18;13.60;99.90
3051;DHT22;1535;51.098;6.414;2022-09-20T08:28:46;13.70;99.90
3051;DHT22;1535;51.098;6.414;2022-09-20T08:31:17;13.80;99.90
3051;DHT22;1535;51.098;6.414;2022-09-20T08:33:45;13.90;99.90
3051;DHT22;1535;51.098;6.414;2022-09-20T08:36:14;13.80;99.90
3051;DHT22;1535;51.098;6.414;2022-09-20T08:38:42;13.80;99.90
3051;DHT22;1535;51.098;6.414;2022-09-20T08:41:10;14.10;99.90
3051;DHT22;1535;51.098;6.414;2022-09-20T08:43:41;14.20;99.90
3051;DHT22;1535;51.098;6.414;2022-09-20T08:46:13;14.30;99.90
3051;DHT22;1535;51.098;6.414;2022-09-20T08:48:43;14.50;99.90
3051;DHT22;1535;51.098;6.414;2022-09-20T08:51:12;14.60;99.90
3051;DHT22;1535;51.098;6.414;2022-09-20T08:53:44;14.80;99.90
3051;DHT22;1535;51.098;6.414;2022-09-20T08:56:12;15.00;99.90
3051;DHT22;1535;51.098;6.414;2022-09-20T08:58:39;15.30;99.90
3051;DHT22;1535;51.098;6.414;2022-09-20T09:01:09;15.40;99.90
3051;DHT22;1535;51.098;6.414;2022-09-20T09:03:37;15.50;99.90
3051;DHT22;1535;51.098;6.414;2022-09-20T09:06:18;15.70;99.90
3051;DHT22;1535;51.098;6.414;2022-09-20T09:08:45;16.00;99.90
3051;DHT22;1535;51.098;6.414;2022-09-20T09:11:18;16.20;99.90
3051;DHT22;1535;51.098;6.414;2022-09-20T09:13:50;16.30;99.90
3051;DHT22;1535;51.098;6.414;2022-09-20T09:16:20;16.30;99.90
3051;DHT22;1535;51.098;6.414;2022-09-20T09:18:51;16.10;99.90
3051;DHT22;1535;51.098;6.414;2022-09-20T09:21:22;16.10;99.90
3051;DHT22;1535;51.098;6.414;2022-09-20T09:23:52;16.00;99.90
3051;DHT22;1535;51.098;6.414;2022-09-20T09:26:28;15.70;99.90
3051;DHT22;1535;51.098;6.414;2022-09-20T09:29:08;15.90;99.90
3051;DHT22;1535;51.098;6.414;2022-09-20T09:31:38;16.50;99.90
3051;DHT22;1535;51.098;6.414;2022-09-20T09:34:22;17.40;99.90
3051;DHT22;1535;51.098;6.414;2022-09-20T09:36:51;18.00;99.90
3051;DHT22;1535;51.098;6.414;2022-09-20T09:39:23;18.20;99.90
3051;DHT22;1535;51.098;6.414;2022-09-20T09:41:52;18.00;99.90
3051;DHT22;1535;51.098;6.414;2022-09-20T09:44:21;17.80;99.90
3051;DHT22;1535;51.098;6.414;2022-09-20T09:46:49;17.30;99.90
3051;DHT22;1535;51.098;6.414;2022-09-20T09:49:17;17.20;99.90
3051;DHT22;1535;51.098;6.414;2022-09-20T09:52:08;17.10;99.90
3051;DHT22;1535;51.098;6.414;2022-09-20T09:54:39;17.10;99.90
3051;DHT22;1535;51.098;6.414;2022-09-20T09:57:36;17.40;99.90
3051;DHT22;1535;51.098;6.414;2022-09-20T10:00:08;17.70;99.90
3051;DHT22;1535;51.098;6.414;2022-09-20T10:02:59;17.70;99.90
3051;DHT22;1535;51.098;6.414;2022-09-20T10:05:36;17.60;99.90
3051;DHT22;1535;51.098;6.414;2022-09-20T10:08:20;17.80;99.90
3051;DHT22;1535;51.098;6.414;2022-09-20T10:10:59;17.50;99.90
3051;DHT22;1535;51.098;6.414;2022-09-20T10:13:33;17.90;99.90
3051;DHT22;1535;51.098;6.414;2022-09-20T10:16:12;17.90;99.90
3051;DHT22;1535;51.098;6.414;2022-09-20T10:18:46;17.90;99.90
3051;DHT22;1535;51.098;6.414;2022-09-20T10:21:28;18.00;99.90
3051;DHT22;1535;51.098;6.414;2022-09-20T10:27:21;17.50;99.90
3051;DHT22;1535;51.098;6.414;2022-09-20T10:30:02;17.50;99.90
3051;DHT22;1535;51.098;6.414;2022-09-20T10:32:53;17.70;99.90
3051;DHT22;1535;51.098;6.414;2022-09-20T10:35:32;17.60;99.90
3051;DHT22;1535;51.098;6.414;2022-09-20T10:38:15;17.10;99.90
3051;DHT22;1535;51.098;6.414;2022-09-20T10:41:10;16.90;99.90
3051;DHT22;1535;51.098;6.414;2022-09-20T10:44:08;16.50;99.90
3051;DHT22;1535;51.098;6.414;2022-09-20T10:46:44;16.20;99.90
3051;DHT22;1535;51.098;6.414;2022-09-20T10:49:20;16.00;99.90
3051;DHT22;1535;51.098;6.414;2022-09-20T10:51:58;15.80;99.90
3051;DHT22;1535;51.098;6.414;2022-09-20T10:54:37;15.70;99.90
3051;DHT22;1535;51.098;6.414;2022-09-20T10:57:20;15.40;99.90
3051;DHT22;1535;51.098;6.414;2022-09-20T10:59:58;15.20;99.90
3051;DHT22;1535;51.098;6.414;2022-09-20T11:02:47;15.10;99.90
3051;DHT22;1535;51.098;6.414;2022-09-20T11:05:28;14.90;99.90
3051;DHT22;1535;51.098;6.414;2022-09-20T11:08:02;14.60;99.90
3051;DHT22;1535;51.098;6.414;2022-09-20T11:10:36;14.30;99.90
3051;DHT22;1535;51.098;6.414;2022-09-20T11:13:12;14.20;99.90
3051;DHT22;1535;51.098;6.414;2022-09-20T11:15:44;14.10;99.90
3051;DHT22;1535;51.098;6.414;2022-09-20T11:18:15;13.90;99.90
3051;DHT22;1535;51.098;6.414;2022-09-20T11:20:52;13.90;99.90
3051;DHT22;1535;51.098;6.414;2022-09-20T11:23:26;13.80;99.90
3051;DHT22;1535;51.098;6.414;2022-09-20T11:25:57;13.70;99.90
3051;DHT22;1535;51.098;6.414;2022-09-20T11:28:32;13.70;99.90
3051;DHT22;1535;51.098;6.414;2022-09-20T11:31:05;13.70;99.90
3051;DHT22;1535;51.098;6.414;2022-09-20T11:33:37;13.80;99.90
3051;DHT22;1535;51.098;6.414;2022-09-20T11:36:09;13.90;99.90
3051;DHT22;1535;51.098;6.414;2022-09-20T11:38:46;13.90;99.90
3051;DHT22;1535;51.098;6.414;2022-09-20T11:41:17;14.00;99.90
3051;DHT22;1535;51.098;6.414;2022-09-20T11:43:46;14.10;99.90
3051;DHT22;1535;51.098;6.414;2022-09-20T11:46:19;14.20;99.90
3051;DHT22;1535;51.098;6.414;2022-09-20T11:48:50;14.30;99.90
3051;DHT22;1535;51.098;6.414;2022-09-20T11:51:35;14.50;99.90
3051;DHT22;1535;51.098;6.414;2022-09-20T11:57:00;15.20;99.90
3051;DHT22;1535;51.098;6.414;2022-09-20T11:59:33;15.60;99.90
3051;DHT22;1535;51.098;6.414;2022-09-20T12:02:03;15.60;99.90
3051;DHT22;1535;51.098;6.414;2022-09-20T12:04:33;15.90;99.90
3051;DHT22;1535;51.098;6.414;2022-09-20T12:07:03;16.00;99.90
3051;DHT22;1535;51.098;6.414;2022-09-20T12:09:34;15.70;99.90
3051;DHT22;1535;51.098;6.414;2022-09-20T12:12:14;15.20;99.90
3051;DHT22;1535;51.098;6.414;2022-09-20T12:14:53;14.80;99.90
3051;DHT22;1535;51.098;6.414;2022-09-20T12:20:59;14.00;99.90
3051;DHT22;1535;51.098;6.414;2022-09-20T12:26:44;13.60;99.90
3051;DHT22;1535;51.098;6.414;2022-09-20T12:38:35;14.00;99.90
3051;DHT22;1535;51.098;6.414;2022-09-20T12:41:07;14.30;99.90
3051;DHT22;1535;51.098;6.414;2022-09-20T12:43:38;14.40;99.90
3051;DHT22;1535;51.098;6.414;2022-09-20T12:46:19;14.40;99.90
3051;DHT22;1535;51.098;6.414;2022-09-20T12:48:48;14.60;99.90
3051;DHT22;1535;51.098;6.414;2022-09-20T12:51:23;14.80;99.90
3051;DHT22;1535;51.098;6.414;2022-09-20T12:54:11;14.90;99.90
3051;DHT22;1535;51.098;6.414;2022-09-20T12:56:39;15.00;99.90
3051;DHT22;1535;51.098;6.414;2022-09-20T12:59:20;15.30;99.90
3051;DHT22;1535;51.098;6.414;2022-09-20T13:01:50;15.60;99.90
3051;DHT22;1535;51.098;6.414;2022-09-20T13:07:43;16.00;99.90
3051;DHT22;1535;51.098;6.414;2022-09-20T13:10:33;16.40;99.90
3051;DHT22;1535;51.098;6.414;2022-09-20T13:13:11;17.20;99.90
3051;DHT22;1535;51.098;6.414;2022-09-20T13:15:39;17.90;99.90
3051;DHT22;1535;51.098;6.414;2022-09-20T13:18:14;18.40;99.90
3051;DHT22;1535;51.098;6.414;2022-09-20T13:20:41;18.80;99.90
3051;DHT22;1535;51.098;6.414;2022-09-20T13:23:17;18.80;99.90
3051;DHT22;1535;51.098;6.414;2022-09-20T13:25:46;18.80;99.90
3051;DHT22;1535;51.098;6.414;2022-09-20T13:28:20;18.70;99.90
3051;DHT22;1535;51.098;6.414;2022-09-20T13:31:21;18.80;99.90
3051;DHT22;1535;51.098;6.414;2022-09-20T13:33:49;19.00;99.90
3051;DHT22;1535;51.098;6.414;2022-09-20T13:36:23;19.60;99.90
3051;DHT22;1535;51.098;6.414;2022-09-20T13:38:52;19.50;99.90
3051;DHT22;1535;51.098;6.414;2022-09-20T13:41:20;18.90;99.90
3051;DHT22;1535;51.098;6.414;2022-09-20T13:43:48;19.20;99.90
3051;DHT22;1535;51.098;6.414;2022-09-20T13:46:22;19.90;99.90
3051;DHT22;1535;51.098;6.414;2022-09-20T13:48:53;20.90;99.90
3051;DHT22;1535;51.098;6.414;2022-09-20T13:51:23;20.80;99.90
3051;DHT22;1535;51.098;6.414;2022-09-20T13:53:52;20.20;99.90
3051;DHT22;1535;51.098;6.414;2022-09-20T13:56:24;19.50;99.90
3051;DHT22;1535;51.098;6.414;2022-09-20T13:58:54;19.60;99.90
3051;DHT22;1535;51.098;6.414;2022-09-20T14:01:27;19.50;99.90
3051;DHT22;1535;51.098;6.414;2022-09-20T14:04:01;19.20;99.90
3051;DHT22;1535;51.098;6.414;2022-09-20T14:06:30;19.00;99.90
3051;DHT22;1535;51.098;6.414;2022-09-20T14:09:01;19.00;99.90
3051;DHT22;1535;51.098;6.414;2022-09-20T14:11:29;19.80;99.90
3051;DHT22;1535;51.098;6.414;2022-09-20T14:14:00;20.50;99.90
3051;DHT22;1535;51.098;6.414;2022-09-20T14:16:29;20.60;99.90
3051;DHT22;1535;51.098;6.414;2022-09-20T14:18:57;20.60;99.90
3051;DHT22;1535;51.098;6.414;2022-09-20T14:21:27;21.10;99.90
3051;DHT22;1535;51.098;6.414;2022-09-20T14:24:06;21.30;99.90
3051;DHT22;1535;51.098;6.414;2022-09-20T14:26:35;21.00;99.90
3051;DHT22;1535;51.098;6.414;2022-09-20T14:29:27;20.80;99.90
3051;DHT22;1535;51.098;6.414;2022-09-20T14:31:55;20.10;99.90
3051;DHT22;1535;51.098;6.414;2022-09-20T14:34:23;19.90;99.90
3051;DHT22;1535;51.098;6.414;2022-09-20T14:36:58;20.00;99.90
3051;DHT22;1535;51.098;6.414;2022-09-20T14:39:29;20.20;99.90
3051;DHT22;1535;51.098;6.414;2022-09-20T14:41:56;20.20;99.90
3051;DHT22;1535;51.098;6.414;2022-09-20T14:44:29;20.10;99.90
3051;DHT22;1535;51.098;6.414;2022-09-20T14:46:56;20.10;99.90
3051;DHT22;1535;51.098;6.414;2022-09-20T14:49:31;20.20;99.90
3051;DHT22;1535;51.098;6.414;2022-09-20T14:52:29;20.20;99.90
3051;DHT22;1535;51.098;6.414;2022-09-20T14:55:00;20.60;99.90
3051;DHT22;1535;51.098;6.414;2022-09-20T14:57:27;20.40;99.00
3051;DHT22;1535;51.098;6.414;2022-09-20T14:59:55;20.10;99.90
3051;DHT22;1535;51.098;6.414;2022-09-20T15:02:25;20.10;99.90
3051;DHT22;1535;51.098;6.414;2022-09-20T15:04:54;20.00;99.90
3051;DHT22;1535;51.098;6.414;2022-09-20T15:07:24;20.30;99.40
3051;DHT22;1535;51.098;6.414;2022-09-20T15:09:51;20.60;99.70
3051;DHT22;1535;51.098;6.414;2022-09-20T15:12:21;20.60;97.50
3051;DHT22;1535;51.098;6.414;2022-09-20T15:14:48;20.10;97.70
3051;DHT22;1535;51.098;6.414;2022-09-20T15:17:16;19.10;98.30
3051;DHT22;1535;51.098;6.414;2022-09-20T15:19:43;18.20;99.90
3051;DHT22;1535;51.098;6.414;2022-09-20T15:22:12;18.00;99.90
3051;DHT22;1535;51.098;6.414;2022-09-20T15:24:40;18.40;99.90
3051;DHT22;1535;51.098;6.414;2022-09-20T15:27:08;18.70;99.90
3051;DHT22;1535;51.098;6.414;2022-09-20T15:29:37;19.10;99.90
3051;DHT22;1535;51.098;6.414;2022-09-20T15:32:04;19.30;99.90
3051;DHT22;1535;51.098;6.414;2022-09-20T15:34:33;19.20;99.90
3051;DHT22;1535;51.098;6.414;2022-09-20T15:37:00;19.30;99.90
3051;DHT22;1535;51.098;6.414;2022-09-20T15:39:26;19.60;99.90
3051;DHT22;1535;51.098;6.414;2022-09-20T15:41:53;19.90;99.90
3051;DHT22;1535;51.098;6.414;2022-09-20T15:44:20;19.60;99.90
3051;DHT22;1535;51.098;6.414;2022-09-20T15:46:49;19.20;99.90
3051;DHT22;1535;51.098;6.414;2022-09-20T15:49:17;19.10;99.90
3051;DHT22;1535;51.098;6.414;2022-09-20T15:51:45;19.50;99.90
3051;DHT22;1535;51.098;6.414;2022-09-20T15:54:13;19.80;99.90
3051;DHT22;1535;51.098;6.414;2022-09-20T15:56:40;19.70;99.90
3051;DHT22;1535;51.098;6.414;2022-09-20T15:59:09;19.90;99.90
3051;DHT22;1535;51.098;6.414;2022-09-20T16:01:37;20.00;99.90
3051;DHT22;1535;51.098;6.414;2022-09-20T16:04:09;19.40;99.90
3051;DHT22;1535;51.098;6.414;2022-09-20T16:06:37;19.20;99.90
3051;DHT22;1535;51.098;6.414;2022-09-20T16:09:05;19.00;99.90
3051;DHT22;1535;51.098;6.414;2022-09-20T16:11:33;19.10;99.90
3051;DHT22;1535;51.098;6.414;2022-09-20T16:14:01;18.80;99.90
3051;DHT22;1535;51.098;6.414;2022-09-20T16:16:29;18.60;99.90
3051;DHT22;1535;51.098;6.414;2022-09-20T16:18:57;18.40;99.90
3051;DHT22;1535;51.098;6.414;2022-09-20T16:21:44;18.10;99.90
3051;DHT22;1535;51.098;6.414;2022-09-20T16:24:13;17.90;99.90
3051;DHT22;1535;51.098;6.414;2022-09-20T16:26:40;18.00;99.90
3051;DHT22;1535;51.098;6.414;2022-09-20T16:29:07;18.00;99.90
3051;DHT22;1535;51.098;6.414;2022-09-20T16:31:37;17.70;99.90
3051;DHT22;1535;51.098;6.414;2022-09-20T16:34:10;17.40;99.90
3051;DHT22;1535;51.098;6.414;2022-09-20T16:36:38;17.10;99.90
3051;DHT22;1535;51.098;6.414;2022-09-20T16:39:08;16.90;99.90
3051;DHT22;1535;51.098;6.414;2022-09-20T16:41:35;16.60;99.90
3051;DHT22;1535;51.098;6.414;2022-09-20T16:44:03;16.50;99.90
3051;DHT22;1535;51.098;6.414;2022-09-20T16:46:31;16.20;99.90
3051;DHT22;1535;51.098;6.414;2022-09-20T16:49:02;16.10;99.90
3051;DHT22;1535;51.098;6.414;2022-09-20T16:51:30;15.90;99.90
3051;DHT22;1535;51.098;6.414;2022-09-20T16:54:00;15.90;99.90
3051;DHT22;1535;51.098;6.414;2022-09-20T16:56:30;15.70;99.90
3051;DHT22;1535;51.098;6.414;2022-09-20T16:58:58;15.50;99.90
3051;DHT22;1535;51.098;6.414;2022-09-20T17:01:26;15.40;99.90
3051;DHT22;1535;51.098;6.414;2022-09-20T17:03:53;15.30;99.90
3051;DHT22;1535;51.098;6.414;2022-09-20T17:06:22;15.20;99.90
3051;DHT22;1535;51.098;6.414;2022-09-20T17:08:51;15.20;99.90
3051;DHT22;1535;51.098;6.414;2022-09-20T17:11:22;15.40;99.90
3051;DHT22;1535;51.098;6.414;2022-09-20T17:13:52;15.50;99.90
3051;DHT22;1535;51.098;6.414;2022-09-20T17:16:21;15.60;99.90
3051;DHT22;1535;51.098;6.414;2022-09-20T17:18:52;15.40;99.90
3051;DHT22;1535;51.098;6.414;2022-09-20T17:21:20;15.30;99.90
3051;DHT22;1535;51.098;6.414;2022-09-20T17:23:48;15.10;99.90
3051;DHT22;1535;51.098;6.414;2022-09-20T17:26:22;15.00;99.90
3051;DHT22;1535;51.098;6.414;2022-09-20T17:28:52;14.80;99.90
3051;DHT22;1535;51.098;6.414;2022-09-20T17:31:21;14.60;99.90